sensor_id;sensor_type;location;lat;lon;timestamp;P1;durP1;ratioP1;P2;durP2;ratioP2
53521;SDS011;39398;48.382;9.802;2023-12-04T00:01:21;399.13;;;36.78;;
53521;SDS011;39398;48.382;9.802;2023-12-04T00:06:24;462.83;;;44.33;;
53521;SDS011;39398;48.382;9.802;2023-12-04T00:11:27;88.70;;;10.75;;
53521;SDS011;39398;48.382;9.802;2023-12-04T00:16:33;24.48;;;9.85;;
53521;SDS011;39398;48.382;9.802;2023-12-04T00:21:36;196.52;;;17.35;;
53521;SDS011;39398;48.382;9.802;2023-12-04T00:26:38;72.53;;;13.65;;
53521;SDS011;39398;48.382;9.802;2023-12-04T00:31:39;34.92;;;13.57;;
53521;SDS011;39398;48.382;9.802;2023-12-04T00:36:42;255.85;;;19.05;;
53521;SDS011;39398;48.382;9.802;2023-12-04T00:41:44;41.35;;;16.90;;
53521;SDS011;39398;48.382;9.802;2023-12-04T00:46:46;40.72;;;17.23;;
53521;SDS011;39398;48.382;9.802;2023-12-04T00:51:49;294.35;;;24.67;;
53521;SDS011;39398;48.382;9.802;2023-12-04T00:56:51;29.55;;;13.60;;
53521;SDS011;39398;48.382;9.802;2023-12-04T01:01:52;189.30;;;22.65;;
53521;SDS011;39398;48.382;9.802;2023-12-04T01:06:55;216.05;;;20.00;;
53521;SDS011;39398;48.382;9.802;2023-12-04T01:11:57;245.82;;;20.13;;
53521;SDS011;39398;48.382;9.802;2023-12-04T01:16:58;202.88;;;21.75;;
53521;SDS011;39398;48.382;9.802;2023-12-04T01:22:01;27.90;;;12.00;;
53521;SDS011;39398;48.382;9.802;2023-12-04T01:27:03;29.08;;;12.13;;
53521;SDS011;39398;48.382;9.802;2023-12-04T01:32:06;58.25;;;10.45;;
53521;SDS011;39398;48.382;9.802;2023-12-04T01:37:08;39.28;;;11.68;;
53521;SDS011;39398;48.382;9.802;2023-12-04T01:42:10;272.80;;;22.85;;
53521;SDS011;39398;48.382;9.802;2023-12-04T01:47:12;42.40;;;13.30;;
53521;SDS011;39398;48.382;9.802;2023-12-04T01:52:15;36.47;;;12.25;;
53521;SDS011;39398;48.382;9.802;2023-12-04T01:57:17;36.85;;;13.82;;
53521;SDS011;39398;48.382;9.802;2023-12-04T02:02:19;30.58;;;11.73;;
53521;SDS011;39398;48.382;9.802;2023-12-04T02:07:23;27.98;;;11.52;;
53521;SDS011;39398;48.382;9.802;2023-12-04T02:12:24;195.85;;;17.83;;
53521;SDS011;39398;48.382;9.802;2023-12-04T02:17:26;280.17;;;24.95;;
53521;SDS011;39398;48.382;9.802;2023-12-04T02:22:31;142.68;;;14.60;;
53521;SDS011;39398;48.382;9.802;2023-12-04T02:27:37;197.57;;;16.02;;
53521;SDS011;39398;48.382;9.802;2023-12-04T02:32:45;133.93;;;13.60;;
53521;SDS011;39398;48.382;9.802;2023-12-04T02:37:48;399.45;;;30.58;;
53521;SDS011;39398;48.382;9.802;2023-12-04T02:42:52;154.38;;;21.30;;
53521;SDS011;39398;48.382;9.802;2023-12-04T02:47:53;55.28;;;5.85;;
53521;SDS011;39398;48.382;9.802;2023-12-04T02:52:55;332.55;;;29.05;;
53521;SDS011;39398;48.382;9.802;2023-12-04T02:57:58;45.28;;;5.75;;
53521;SDS011;39398;48.382;9.802;2023-12-04T03:03:00;7.18;;;5.03;;
53521;SDS011;39398;48.382;9.802;2023-12-04T03:08:01;50.10;;;6.90;;
53521;SDS011;39398;48.382;9.802;2023-12-04T03:13:05;56.05;;;7.38;;
53521;SDS011;39398;48.382;9.802;2023-12-04T03:18:06;47.38;;;13.32;;
53521;SDS011;39398;48.382;9.802;2023-12-04T03:23:12;119.70;;;15.40;;
53521;SDS011;39398;48.382;9.802;2023-12-04T03:28:15;75.03;;;16.88;;
53521;SDS011;39398;48.382;9.802;2023-12-04T03:33:17;130.98;;;19.23;;
53521;SDS011;39398;48.382;9.802;2023-12-04T03:38:19;96.63;;;19.35;;
53521;SDS011;39398;48.382;9.802;2023-12-04T03:43:21;112.20;;;21.60;;
53521;SDS011;39398;48.382;9.802;2023-12-04T03:48:23;77.60;;;20.35;;
53521;SDS011;39398;48.382;9.802;2023-12-04T03:53:25;136.40;;;22.58;;
53521;SDS011;39398;48.382;9.802;2023-12-04T03:58:29;35.67;;;7.00;;
53521;SDS011;39398;48.382;9.802;2023-12-04T04:03:30;79.78;;;16.70;;
53521;SDS011;39398;48.382;9.802;2023-12-04T04:08:32;110.68;;;23.65;;
53521;SDS011;39398;48.382;9.802;2023-12-04T04:13:35;133.20;;;24.48;;
53521;SDS011;39398;48.382;9.802;2023-12-04T04:18:37;127.20;;;21.70;;
53521;SDS011;39398;48.382;9.802;2023-12-04T04:23:39;165.23;;;22.58;;
53521;SDS011;39398;48.382;9.802;2023-12-04T04:28:42;100.75;;;23.73;;
53521;SDS011;39398;48.382;9.802;2023-12-04T04:33:43;125.57;;;22.73;;
53521;SDS011;39398;48.382;9.802;2023-12-04T04:38:45;144.25;;;23.25;;
53521;SDS011;39398;48.382;9.802;2023-12-04T04:43:48;108.40;;;24.85;;
53521;SDS011;39398;48.382;9.802;2023-12-04T04:48:50;194.10;;;26.13;;
53521;SDS011;39398;48.382;9.802;2023-12-04T04:53:51;134.25;;;23.85;;
53521;SDS011;39398;48.382;9.802;2023-12-04T04:58:54;106.20;;;22.67;;
53521;SDS011;39398;48.382;9.802;2023-12-04T05:03:56;118.22;;;23.80;;
53521;SDS011;39398;48.382;9.802;2023-12-04T05:08:58;170.55;;;28.23;;
53521;SDS011;39398;48.382;9.802;2023-12-04T05:14:01;75.28;;;22.05;;
53521;SDS011;39398;48.382;9.802;2023-12-04T05:19:02;87.93;;;22.98;;
53521;SDS011;39398;48.382;9.802;2023-12-04T05:24:04;73.82;;;20.38;;
53521;SDS011;39398;48.382;9.802;2023-12-04T05:29:08;102.30;;;29.70;;
53521;SDS011;39398;48.382;9.802;2023-12-04T05:34:09;118.72;;;24.17;;
53521;SDS011;39398;48.382;9.802;2023-12-04T05:39:11;92.85;;;24.10;;
53521;SDS011;39398;48.382;9.802;2023-12-04T05:44:14;88.18;;;22.42;;
53521;SDS011;39398;48.382;9.802;2023-12-04T05:49:16;93.30;;;24.23;;
53521;SDS011;39398;48.382;9.802;2023-12-04T05:54:17;124.40;;;24.92;;
53521;SDS011;39398;48.382;9.802;2023-12-04T05:59:20;297.13;;;30.77;;
53521;SDS011;39398;48.382;9.802;2023-12-04T06:04:22;92.65;;;25.58;;
53521;SDS011;39398;48.382;9.802;2023-12-04T06:09:24;200.93;;;31.50;;
53521;SDS011;39398;48.382;9.802;2023-12-04T06:14:26;96.90;;;25.05;;
53521;SDS011;39398;48.382;9.802;2023-12-04T06:19:28;103.78;;;25.30;;
53521;SDS011;39398;48.382;9.802;2023-12-04T06:24:30;156.65;;;50.47;;
53521;SDS011;39398;48.382;9.802;2023-12-04T06:29:34;158.80;;;27.25;;
53521;SDS011;39398;48.382;9.802;2023-12-04T06:34:36;101.47;;;25.27;;
53521;SDS011;39398;48.382;9.802;2023-12-04T06:39:39;75.90;;;21.95;;
53521;SDS011;39398;48.382;9.802;2023-12-04T06:44:43;83.82;;;23.10;;
53521;SDS011;39398;48.382;9.802;2023-12-04T06:49:45;90.75;;;23.42;;
53521;SDS011;39398;48.382;9.802;2023-12-04T06:54:47;130.10;;;29.77;;
53521;SDS011;39398;48.382;9.802;2023-12-04T06:59:50;127.60;;;28.58;;
53521;SDS011;39398;48.382;9.802;2023-12-04T07:04:51;115.30;;;27.88;;
53521;SDS011;39398;48.382;9.802;2023-12-04T07:09:53;116.65;;;30.60;;
53521;SDS011;39398;48.382;9.802;2023-12-04T07:14:57;101.57;;;29.52;;
53521;SDS011;39398;48.382;9.802;2023-12-04T07:19:59;88.53;;;27.58;;
53521;SDS011;39398;48.382;9.802;2023-12-04T07:25:01;109.97;;;26.85;;
53521;SDS011;39398;48.382;9.802;2023-12-04T07:30:04;97.22;;;28.63;;
53521;SDS011;39398;48.382;9.802;2023-12-04T07:35:07;104.20;;;29.90;;
53521;SDS011;39398;48.382;9.802;2023-12-04T07:40:09;89.15;;;26.60;;
53521;SDS011;39398;48.382;9.802;2023-12-04T07:45:12;94.65;;;24.90;;
53521;SDS011;39398;48.382;9.802;2023-12-04T07:50:14;75.28;;;23.70;;
53521;SDS011;39398;48.382;9.802;2023-12-04T07:55:16;80.03;;;24.73;;
53521;SDS011;39398;48.382;9.802;2023-12-04T08:00:19;87.10;;;27.00;;
53521;SDS011;39398;48.382;9.802;2023-12-04T08:05:21;71.25;;;25.25;;
53521;SDS011;39398;48.382;9.802;2023-12-04T08:10:23;81.18;;;25.67;;
53521;SDS011;39398;48.382;9.802;2023-12-04T08:15:26;90.45;;;26.75;;
53521;SDS011;39398;48.382;9.802;2023-12-04T08:20:28;75.57;;;24.83;;
53521;SDS011;39398;48.382;9.802;2023-12-04T08:25:40;79.03;;;25.70;;
53521;SDS011;39398;48.382;9.802;2023-12-04T08:30:43;94.90;;;28.13;;
53521;SDS011;39398;48.382;9.802;2023-12-04T08:35:45;118.43;;;39.83;;
53521;SDS011;39398;48.382;9.802;2023-12-04T08:40:49;78.72;;;25.80;;
53521;SDS011;39398;48.382;9.802;2023-12-04T08:45:51;85.15;;;26.63;;
53521;SDS011;39398;48.382;9.802;2023-12-04T08:50:53;83.45;;;24.48;;
53521;SDS011;39398;48.382;9.802;2023-12-04T08:55:55;79.35;;;25.08;;
53521;SDS011;39398;48.382;9.802;2023-12-04T09:00:58;72.43;;;23.10;;
53521;SDS011;39398;48.382;9.802;2023-12-04T09:05:59;74.00;;;24.20;;
53521;SDS011;39398;48.382;9.802;2023-12-04T09:11:01;69.10;;;23.15;;
53521;SDS011;39398;48.382;9.802;2023-12-04T09:16:23;71.75;;;23.25;;
53521;SDS011;39398;48.382;9.802;2023-12-04T09:21:24;71.22;;;24.23;;
53521;SDS011;39398;48.382;9.802;2023-12-04T09:26:26;79.93;;;26.40;;
53521;SDS011;39398;48.382;9.802;2023-12-04T09:31:29;68.68;;;24.95;;
53521;SDS011;39398;48.382;9.802;2023-12-04T09:36:32;72.50;;;26.23;;
53521;SDS011;39398;48.382;9.802;2023-12-04T09:41:35;78.63;;;27.42;;
53521;SDS011;39398;48.382;9.802;2023-12-04T09:46:39;72.50;;;25.65;;
53521;SDS011;39398;48.382;9.802;2023-12-04T09:51:41;67.40;;;25.02;;
53521;SDS011;39398;48.382;9.802;2023-12-04T09:56:43;67.78;;;22.80;;
53521;SDS011;39398;48.382;9.802;2023-12-04T10:01:46;66.43;;;24.00;;
53521;SDS011;39398;48.382;9.802;2023-12-04T10:06:48;75.07;;;26.92;;
53521;SDS011;39398;48.382;9.802;2023-12-04T10:11:51;62.60;;;25.00;;
53521;SDS011;39398;48.382;9.802;2023-12-04T10:16:54;51.00;;;21.70;;
53521;SDS011;39398;48.382;9.802;2023-12-04T10:21:57;44.63;;;18.65;;
53521;SDS011;39398;48.382;9.802;2023-12-04T10:26:59;45.15;;;20.65;;
53521;SDS011;39398;48.382;9.802;2023-12-04T10:32:03;46.35;;;19.90;;
53521;SDS011;39398;48.382;9.802;2023-12-04T10:37:05;41.15;;;19.00;;
53521;SDS011;39398;48.382;9.802;2023-12-04T10:42:06;38.70;;;17.35;;
53521;SDS011;39398;48.382;9.802;2023-12-04T10:47:09;41.35;;;20.10;;
53521;SDS011;39398;48.382;9.802;2023-12-04T10:52:11;43.22;;;19.42;;
53521;SDS011;39398;48.382;9.802;2023-12-04T10:57:14;46.42;;;21.27;;
53521;SDS011;39398;48.382;9.802;2023-12-04T11:02:25;40.97;;;18.58;;
53521;SDS011;39398;48.382;9.802;2023-12-04T11:07:28;32.60;;;16.27;;
53521;SDS011;39398;48.382;9.802;2023-12-04T11:12:53;34.83;;;16.95;;
53521;SDS011;39398;48.382;9.802;2023-12-04T11:18:02;35.30;;;18.40;;
53521;SDS011;39398;48.382;9.802;2023-12-04T11:23:05;34.58;;;16.75;;
53521;SDS011;39398;48.382;9.802;2023-12-04T11:28:08;55.15;;;26.00;;
53521;SDS011;39398;48.382;9.802;2023-12-04T11:33:12;43.33;;;21.95;;
53521;SDS011;39398;48.382;9.802;2023-12-04T11:38:14;46.28;;;25.05;;
53521;SDS011;39398;48.382;9.802;2023-12-04T11:43:23;61.50;;;30.02;;
53521;SDS011;39398;48.382;9.802;2023-12-04T11:48:28;59.63;;;28.90;;
53521;SDS011;39398;48.382;9.802;2023-12-04T11:53:29;88.60;;;36.80;;
53521;SDS011;39398;48.382;9.802;2023-12-04T11:58:31;80.80;;;33.60;;
53521;SDS011;39398;48.382;9.802;2023-12-04T12:03:34;75.40;;;31.70;;
53521;SDS011;39398;48.382;9.802;2023-12-04T12:08:36;69.55;;;29.63;;
53521;SDS011;39398;48.382;9.802;2023-12-04T12:13:40;84.38;;;32.67;;
53521;SDS011;39398;48.382;9.802;2023-12-04T12:18:43;90.25;;;36.28;;
53521;SDS011;39398;48.382;9.802;2023-12-04T12:23:45;114.32;;;47.13;;
53521;SDS011;39398;48.382;9.802;2023-12-04T12:28:47;87.32;;;35.33;;
53521;SDS011;39398;48.382;9.802;2023-12-04T12:33:50;86.65;;;31.38;;
53521;SDS011;39398;48.382;9.802;2023-12-04T12:38:52;58.65;;;22.23;;
53521;SDS011;39398;48.382;9.802;2023-12-04T12:43:55;54.20;;;21.20;;
53521;SDS011;39398;48.382;9.802;2023-12-04T12:48:58;58.28;;;22.75;;
53521;SDS011;39398;48.382;9.802;2023-12-04T12:54:00;61.53;;;25.60;;
53521;SDS011;39398;48.382;9.802;2023-12-04T12:59:02;52.42;;;23.88;;
53521;SDS011;39398;48.382;9.802;2023-12-04T13:04:05;55.47;;;25.58;;
53521;SDS011;39398;48.382;9.802;2023-12-04T13:09:07;75.32;;;30.52;;
53521;SDS011;39398;48.382;9.802;2023-12-04T13:14:08;75.40;;;32.22;;
53521;SDS011;39398;48.382;9.802;2023-12-04T13:19:11;78.05;;;35.50;;
53521;SDS011;39398;48.382;9.802;2023-12-04T13:24:13;86.95;;;35.35;;
53521;SDS011;39398;48.382;9.802;2023-12-04T13:29:15;100.00;;;40.90;;
53521;SDS011;39398;48.382;9.802;2023-12-04T13:34:18;106.43;;;42.90;;
53521;SDS011;39398;48.382;9.802;2023-12-04T13:39:19;91.85;;;35.55;;
53521;SDS011;39398;48.382;9.802;2023-12-04T13:44:21;102.15;;;40.05;;
53521;SDS011;39398;48.382;9.802;2023-12-04T13:49:24;95.45;;;38.38;;
53521;SDS011;39398;48.382;9.802;2023-12-04T13:54:26;90.53;;;33.05;;
53521;SDS011;39398;48.382;9.802;2023-12-04T13:59:27;88.50;;;34.00;;
53521;SDS011;39398;48.382;9.802;2023-12-04T14:04:30;114.25;;;41.53;;
53521;SDS011;39398;48.382;9.802;2023-12-04T14:09:32;100.18;;;42.33;;
53521;SDS011;39398;48.382;9.802;2023-12-04T14:14:34;92.55;;;36.00;;
53521;SDS011;39398;48.382;9.802;2023-12-04T14:19:37;102.35;;;40.78;;
53521;SDS011;39398;48.382;9.802;2023-12-04T14:24:38;79.82;;;34.28;;
53521;SDS011;39398;48.382;9.802;2023-12-04T14:29:40;103.35;;;39.78;;
53521;SDS011;39398;48.382;9.802;2023-12-04T14:34:43;85.90;;;32.75;;
53521;SDS011;39398;48.382;9.802;2023-12-04T14:39:44;78.60;;;32.85;;
53521;SDS011;39398;48.382;9.802;2023-12-04T14:44:46;79.18;;;31.33;;
53521;SDS011;39398;48.382;9.802;2023-12-04T14:49:51;84.72;;;33.22;;
53521;SDS011;39398;48.382;9.802;2023-12-04T14:54:52;93.47;;;35.92;;
53521;SDS011;39398;48.382;9.802;2023-12-04T14:59:54;85.30;;;35.85;;
53521;SDS011;39398;48.382;9.802;2023-12-04T15:04:57;92.18;;;35.53;;
53521;SDS011;39398;48.382;9.802;2023-12-04T15:10:01;85.60;;;36.78;;
53521;SDS011;39398;48.382;9.802;2023-12-04T15:15:03;74.22;;;30.98;;
53521;SDS011;39398;48.382;9.802;2023-12-04T15:20:07;74.55;;;30.30;;
53521;SDS011;39398;48.382;9.802;2023-12-04T15:25:08;88.80;;;34.72;;
53521;SDS011;39398;48.382;9.802;2023-12-04T15:30:10;88.20;;;40.80;;
53521;SDS011;39398;48.382;9.802;2023-12-04T15:35:13;91.50;;;39.58;;
53521;SDS011;39398;48.382;9.802;2023-12-04T15:40:15;109.00;;;47.20;;
53521;SDS011;39398;48.382;9.802;2023-12-04T15:45:17;79.53;;;35.78;;
53521;SDS011;39398;48.382;9.802;2023-12-04T15:50:20;93.20;;;38.83;;
53521;SDS011;39398;48.382;9.802;2023-12-04T15:55:21;76.88;;;30.92;;
53521;SDS011;39398;48.382;9.802;2023-12-04T16:00:23;77.47;;;31.88;;
53521;SDS011;39398;48.382;9.802;2023-12-04T16:05:27;79.32;;;33.05;;
53521;SDS011;39398;48.382;9.802;2023-12-04T16:10:29;77.18;;;29.85;;
53521;SDS011;39398;48.382;9.802;2023-12-04T16:15:30;73.50;;;27.88;;
53521;SDS011;39398;48.382;9.802;2023-12-04T16:20:34;79.20;;;34.22;;
53521;SDS011;39398;48.382;9.802;2023-12-04T16:25:35;68.32;;;25.83;;
53521;SDS011;39398;48.382;9.802;2023-12-04T16:30:37;126.28;;;47.22;;
53521;SDS011;39398;48.382;9.802;2023-12-04T16:35:40;140.88;;;60.78;;
53521;SDS011;39398;48.382;9.802;2023-12-04T16:40:42;111.53;;;47.00;;
53521;SDS011;39398;48.382;9.802;2023-12-04T16:45:43;107.45;;;52.60;;
53521;SDS011;39398;48.382;9.802;2023-12-04T16:50:46;106.75;;;42.92;;
53521;SDS011;39398;48.382;9.802;2023-12-04T16:55:48;96.32;;;39.83;;
53521;SDS011;39398;48.382;9.802;2023-12-04T17:00:50;166.25;;;83.70;;
53521;SDS011;39398;48.382;9.802;2023-12-04T17:05:53;204.85;;;81.47;;
53521;SDS011;39398;48.382;9.802;2023-12-04T17:10:54;113.32;;;47.03;;
53521;SDS011;39398;48.382;9.802;2023-12-04T17:15:57;138.93;;;67.22;;
53521;SDS011;39398;48.382;9.802;2023-12-04T17:20:59;177.90;;;92.28;;
53521;SDS011;39398;48.382;9.802;2023-12-04T17:26:01;116.80;;;50.78;;
53521;SDS011;39398;48.382;9.802;2023-12-04T17:31:03;103.32;;;43.53;;
53521;SDS011;39398;48.382;9.802;2023-12-04T17:36:07;94.05;;;39.92;;
53521;SDS011;39398;48.382;9.802;2023-12-04T17:41:09;109.00;;;45.50;;
53521;SDS011;39398;48.382;9.802;2023-12-04T17:46:11;102.95;;;40.17;;
53521;SDS011;39398;48.382;9.802;2023-12-04T17:51:17;97.30;;;35.47;;
53521;SDS011;39398;48.382;9.802;2023-12-04T17:56:19;90.72;;;34.67;;
53521;SDS011;39398;48.382;9.802;2023-12-04T18:01:20;84.97;;;32.05;;
53521;SDS011;39398;48.382;9.802;2023-12-04T18:06:26;87.68;;;33.50;;
53521;SDS011;39398;48.382;9.802;2023-12-04T18:11:29;94.28;;;36.33;;
53521;SDS011;39398;48.382;9.802;2023-12-04T18:16:30;89.20;;;34.67;;
53521;SDS011;39398;48.382;9.802;2023-12-04T18:21:33;213.90;;;82.47;;
53521;SDS011;39398;48.382;9.802;2023-12-04T18:26:35;140.32;;;56.83;;
53521;SDS011;39398;48.382;9.802;2023-12-04T18:31:37;76.00;;;31.95;;
53521;SDS011;39398;48.382;9.802;2023-12-04T18:36:41;70.72;;;31.55;;
53521;SDS011;39398;48.382;9.802;2023-12-04T18:41:44;80.38;;;29.67;;
53521;SDS011;39398;48.382;9.802;2023-12-04T18:46:46;72.65;;;27.70;;
53521;SDS011;39398;48.382;9.802;2023-12-04T18:51:54;83.03;;;32.90;;
53521;SDS011;39398;48.382;9.802;2023-12-04T18:56:56;181.35;;;65.03;;
53521;SDS011;39398;48.382;9.802;2023-12-04T19:01:57;164.20;;;61.50;;
53521;SDS011;39398;48.382;9.802;2023-12-04T19:07:00;113.65;;;45.55;;
53521;SDS011;39398;48.382;9.802;2023-12-04T19:12:02;99.13;;;42.50;;
53521;SDS011;39398;48.382;9.802;2023-12-04T19:17:04;91.43;;;35.63;;
53521;SDS011;39398;48.382;9.802;2023-12-04T19:22:08;86.43;;;33.00;;
53521;SDS011;39398;48.382;9.802;2023-12-04T19:27:09;75.30;;;33.13;;
53521;SDS011;39398;48.382;9.802;2023-12-04T19:32:11;92.13;;;33.85;;
53521;SDS011;39398;48.382;9.802;2023-12-04T19:37:16;88.45;;;32.75;;
53521;SDS011;39398;48.382;9.802;2023-12-04T19:42:18;80.90;;;32.25;;
53521;SDS011;39398;48.382;9.802;2023-12-04T19:47:19;87.75;;;33.85;;
53521;SDS011;39398;48.382;9.802;2023-12-04T19:52:22;84.28;;;31.80;;
53521;SDS011;39398;48.382;9.802;2023-12-04T19:57:24;91.50;;;38.45;;
53521;SDS011;39398;48.382;9.802;2023-12-04T20:02:26;98.88;;;41.17;;
53521;SDS011;39398;48.382;9.802;2023-12-04T20:07:29;90.82;;;38.38;;
53521;SDS011;39398;48.382;9.802;2023-12-04T20:12:30;61.75;;;23.83;;
53521;SDS011;39398;48.382;9.802;2023-12-04T20:17:32;66.70;;;26.20;;
53521;SDS011;39398;48.382;9.802;2023-12-04T20:22:35;82.55;;;30.55;;
53521;SDS011;39398;48.382;9.802;2023-12-04T20:27:37;71.30;;;30.33;;
53521;SDS011;39398;48.382;9.802;2023-12-04T20:32:39;71.40;;;30.00;;
53521;SDS011;39398;48.382;9.802;2023-12-04T20:37:42;83.43;;;30.45;;
53521;SDS011;39398;48.382;9.802;2023-12-04T20:42:43;80.07;;;31.77;;
53521;SDS011;39398;48.382;9.802;2023-12-04T20:47:45;72.50;;;30.10;;
53521;SDS011;39398;48.382;9.802;2023-12-04T20:52:48;75.50;;;31.13;;
53521;SDS011;39398;48.382;9.802;2023-12-04T20:57:50;71.90;;;28.40;;
53521;SDS011;39398;48.382;9.802;2023-12-04T21:02:51;77.93;;;31.92;;
53521;SDS011;39398;48.382;9.802;2023-12-04T21:07:54;78.20;;;30.92;;
53521;SDS011;39398;48.382;9.802;2023-12-04T21:12:56;75.50;;;28.63;;
53521;SDS011;39398;48.382;9.802;2023-12-04T21:17:58;83.38;;;31.98;;
53521;SDS011;39398;48.382;9.802;2023-12-04T21:23:01;71.65;;;29.20;;
53521;SDS011;39398;48.382;9.802;2023-12-04T21:28:02;69.55;;;29.83;;
53521;SDS011;39398;48.382;9.802;2023-12-04T21:33:05;75.68;;;31.85;;
53521;SDS011;39398;48.382;9.802;2023-12-04T21:38:08;58.53;;;27.83;;
53521;SDS011;39398;48.382;9.802;2023-12-04T21:43:10;55.13;;;27.17;;
53521;SDS011;39398;48.382;9.802;2023-12-04T21:48:11;53.55;;;27.45;;
53521;SDS011;39398;48.382;9.802;2023-12-04T21:53:14;54.42;;;28.38;;
53521;SDS011;39398;48.382;9.802;2023-12-04T21:58:16;57.67;;;28.95;;
53521;SDS011;39398;48.382;9.802;2023-12-04T22:03:19;70.70;;;35.63;;
53521;SDS011;39398;48.382;9.802;2023-12-04T22:08:22;65.25;;;30.38;;
53521;SDS011;39398;48.382;9.802;2023-12-04T22:13:24;69.55;;;34.67;;
53521;SDS011;39398;48.382;9.802;2023-12-04T22:18:25;85.65;;;38.33;;
53521;SDS011;39398;48.382;9.802;2023-12-04T22:23:29;100.75;;;40.10;;
53521;SDS011;39398;48.382;9.802;2023-12-04T22:28:30;100.45;;;39.88;;
53521;SDS011;39398;48.382;9.802;2023-12-04T22:33:32;86.70;;;39.00;;
53521;SDS011;39398;48.382;9.802;2023-12-04T22:38:35;99.43;;;41.58;;
53521;SDS011;39398;48.382;9.802;2023-12-04T22:43:37;115.30;;;42.33;;
53521;SDS011;39398;48.382;9.802;2023-12-04T22:48:39;112.38;;;43.90;;
53521;SDS011;39398;48.382;9.802;2023-12-04T22:53:42;96.40;;;41.90;;
53521;SDS011;39398;48.382;9.802;2023-12-04T22:58:44;112.82;;;47.08;;
53521;SDS011;39398;48.382;9.802;2023-12-04T23:03:46;113.72;;;44.15;;
53521;SDS011;39398;48.382;9.802;2023-12-04T23:08:49;117.75;;;45.28;;
53521;SDS011;39398;48.382;9.802;2023-12-04T23:13:50;123.88;;;46.47;;
53521;SDS011;39398;48.382;9.802;2023-12-04T23:18:52;119.22;;;44.50;;
53521;SDS011;39398;48.382;9.802;2023-12-04T23:23:55;128.00;;;46.97;;
53521;SDS011;39398;48.382;9.802;2023-12-04T23:28:57;107.38;;;43.20;;
53521;SDS011;39398;48.382;9.802;2023-12-04T23:33:59;101.50;;;41.63;;
53521;SDS011;39398;48.382;9.802;2023-12-04T23:39:02;96.60;;;42.08;;
53521;SDS011;39398;48.382;9.802;2023-12-04T23:44:04;100.15;;;41.92;;
53521;SDS011;39398;48.382;9.802;2023-12-04T23:49:05;112.45;;;46.55;;
53521;SDS011;39398;48.382;9.802;2023-12-04T23:54:08;106.28;;;42.90;;
53521;SDS011;39398;48.382;9.802;2023-12-04T23:59:10;86.50;;;36.53;;
